Time;durP1;ratioP1;P1;durP2;ratioP2;P2;SDS_P1;SDS_P2;PMS_P1;PMS_P2;Temp;Humidity;BMP_temperature;BMP_pressure;BME280_temperature;BME280_humidity;BME280_pressure;Samples;Min_cycle;Max_cycle;Signal;HPM_P1;HPM_P2
2022/06/02 00:00:06;;;;;;;;;;;15.90;92.40;;;;;;5042483;28;20041;-82
2022/06/02 00:02:56;;;;;;;1.63;1.10;;;15.80;92.40;;;;;;5046029;28;20016;-82
2022/06/02 00:05:52;;;;;;;1.15;0.80;;;15.70;92.40;;;;;;5044897;28;20041;-82
2022/06/02 00:08:30;;;;;;;3.97;1.17;;;15.70;92.50;;;;;;5045710;28;20041;-82
2022/06/02 00:11:15;;;;;;;1.52;1.02;;;15.60;92.40;;;;;;5052297;28;20045;-82
2022/06/02 00:13:53;;;;;;;1.92;1.10;;;15.70;92.50;;;;;;5046528;28;20041;-82
2022/06/02 00:16:27;;;;;;;2.15;1.08;;;15.60;92.40;;;;;;5044296;28;20072;-82
2022/06/02 00:19:07;;;;;;;2.72;1.00;;;15.60;92.40;;;;;;5045031;28;20430;-82
2022/06/02 00:21:47;;;;;;;2.47;1.05;;;15.50;92.50;;;;;;5060108;28;20100;-82
2022/06/02 00:24:34;;;;;;;4.72;1.02;;;15.40;92.50;;;;;;5045018;28;20041;-82
2022/06/02 00:27:25;;;;;;;1.20;0.90;;;15.50;92.50;;;;;;5042815;28;20042;-82
2022/06/02 00:30:16;;;;;;;2.00;1.23;;;15.50;92.80;;;;;;5045184;28;20054;-83
2022/06/02 00:32:50;;;;;;;1.70;1.23;;;15.70;92.60;;;;;;5049639;28;20124;-83
2022/06/02 00:35:23;;;;;;;2.58;1.02;;;15.30;92.60;;;;;;5042697;28;20591;-82
2022/06/02 00:38:12;;;;;;;5.50;1.42;;;15.40;92.60;;;;;;5044880;28;20379;-82
2022/06/02 00:40:38;;;;;;;2.67;1.45;;;15.30;92.60;;;;;;5044516;28;20088;-82
2022/06/02 00:43:22;;;;;;;3.10;1.10;;;15.30;92.70;;;;;;5045268;28;20045;-82
2022/06/02 00:45:56;;;;;;;3.20;1.38;;;15.20;92.60;;;;;;5044769;28;20552;-83
2022/06/02 00:48:56;;;;;;;4.13;1.48;;;15.20;92.70;;;;;;5042768;28;20308;-83
2022/06/02 00:51:53;;;;;;;0.90;0.75;;;15.10;92.70;;;;;;5027794;28;20053;-82
2022/06/02 00:58:17;;;;;;;1.40;0.90;;;15.00;92.80;;;;;;5042876;28;20096;-82
2022/06/02 01:01:02;;;;;;;2.75;1.30;;;14.70;92.80;;;;;;5043032;28;20553;-82
2022/06/02 01:03:38;;;;;;;1.73;1.10;;;15.00;92.80;;;;;;5045075;28;21013;-82
2022/06/02 01:06:20;;;;;;;1.80;1.35;;;15.00;92.90;;;;;;5040515;28;20052;-82
2022/06/02 01:09:05;;;;;;;1.02;0.90;;;15.00;92.80;;;;;;5050083;28;20437;-83
2022/06/02 01:11:52;;;;;;;3.80;0.98;;;14.70;92.70;;;;;;5044876;28;20169;-83
2022/06/02 01:14:30;;;;;;;1.70;1.20;;;14.90;92.80;;;;;;5045867;28;21162;-82
2022/06/02 01:16:55;;;;;;;1.02;0.80;;;15.00;92.80;;;;;;5042302;28;20041;-83
2022/06/02 01:19:51;;;;;;;3.08;0.85;;;15.00;92.80;;;;;;5047633;28;20457;-82
2022/06/02 01:22:34;;;;;;;1.65;0.90;;;14.90;92.70;;;;;;5050931;28;20611;-82
2022/06/02 01:25:28;;;;;;;1.80;1.02;;;14.80;92.80;;;;;;5045466;28;20630;-82
2022/06/02 01:28:15;;;;;;;1.25;0.90;;;14.80;92.80;;;;;;5044201;28;20148;-82
2022/06/02 01:30:56;;;;;;;1.80;1.00;;;14.80;92.80;;;;;;5051007;28;20433;-82
2022/06/02 01:33:24;;;;;;;1.63;1.25;;;14.80;93.00;;;;;;5042262;28;20049;-82
2022/06/02 01:36:16;;;;;;;1.90;1.10;;;14.70;92.80;;;;;;5042756;28;20592;-83
2022/06/02 01:39:12;;;;;;;1.90;1.02;;;14.70;92.80;;;;;;5033265;28;20131;-82
2022/06/02 01:42:09;;;;;;;1.15;0.90;;;14.70;92.80;;;;;;5041586;28;20061;-83
2022/06/02 01:44:56;;;;;;;1.40;1.00;;;14.70;92.80;;;;;;5049707;28;20094;-82
2022/06/02 01:47:40;;;;;;;1.25;0.90;;;14.70;92.80;;;;;;5043436;28;20053;-82
2022/06/02 01:50:34;;;;;;;1.13;0.88;;;14.60;92.80;;;;;;5042429;28;20048;-82
2022/06/02 01:53:12;;;;;;;1.83;1.10;;;14.30;92.80;;;;;;5042342;28;20052;-82
2022/06/02 01:55:43;;;;;;;1.40;1.00;;;14.60;92.90;;;;;;5043686;28;20045;-83
2022/06/02 01:58:21;;;;;;;1.65;1.10;;;14.50;92.80;;;;;;5043629;28;20056;-82
2022/06/02 02:00:56;;;;;;;1.13;0.80;;;14.40;92.90;;;;;;5042677;28;20032;-82
2022/06/02 02:03:32;;;;;;;2.58;1.10;;;14.40;92.90;;;;;;5042218;28;20041;-82
2022/06/02 02:06:38;;;;;;;1.98;1.33;;;14.40;92.90;;;;;;5046158;28;20042;-83
2022/06/02 02:09:11;;;;;;;3.20;0.90;;;14.40;93.00;;;;;;5049428;28;20426;-83
2022/06/02 02:11:42;;;;;;;1.33;0.90;;;14.40;93.00;;;;;;5043582;28;20041;-82
2022/06/02 02:14:21;;;;;;;2.00;1.15;;;14.40;92.90;;;;;;5059904;28;20056;-82
2022/06/02 02:17:12;;;;;;;1.70;1.00;;;14.40;93.00;;;;;;5040469;28;20045;-83
2022/06/02 02:19:50;;;;;;;1.45;1.02;;;14.40;93.00;;;;;;5045345;28;20088;-83
2022/06/02 02:22:27;;;;;;;1.38;1.15;;;14.40;93.10;;;;;;5043207;28;20606;-83
2022/06/02 02:25:02;;;;;;;3.25;1.23;;;14.40;93.00;;;;;;5042333;28;20520;-82
2022/06/02 02:28:02;;;;;;;2.42;1.40;;;14.40;93.10;;;;;;5058804;28;20038;-82
2022/06/02 02:30:49;;;;;;;2.22;1.05;;;14.30;93.00;;;;;;5039835;28;20540;-83
2022/06/02 02:33:44;;;;;;;1.88;1.10;;;14.30;93.00;;;;;;5042421;28;20054;-82
2022/06/02 02:36:48;;;;;;;1.10;1.00;;;14.30;93.10;;;;;;5041429;28;20044;-82
2022/06/02 02:39:18;;;;;;;2.20;1.15;;;14.30;93.10;;;;;;5041313;28;20044;-82
2022/06/02 02:41:50;;;;;;;3.72;1.10;;;14.20;93.10;;;;;;5040601;28;20064;-82
2022/06/02 02:44:26;;;;;;;2.17;1.33;;;14.20;93.10;;;;;;5042736;28;20045;-82
2022/06/02 02:47:16;;;;;;;1.33;1.00;;;14.20;93.20;;;;;;5041790;28;20659;-82
2022/06/02 02:49:49;;;;;;;5.78;1.70;;;14.20;93.20;;;;;;5044852;28;20037;-82
2022/06/02 02:53:20;;;;;;;1.60;1.08;;;14.20;93.20;;;;;;5044169;28;20041;-83
2022/06/02 02:56:30;;;;;;;3.25;2.55;;;14.20;93.20;;;;;;5024572;28;20162;-82
2022/06/02 02:59:36;;;;;;;4.25;1.20;;;14.10;93.20;;;;;;5008398;28;20038;-82
2022/06/02 03:02:51;;;;;;;5.18;1.35;;;14.10;93.30;;;;;;5042458;28;20240;-82
2022/06/02 03:05:56;;;;;;;3.47;1.20;;;15.00;93.50;;;;;;5060520;28;20045;-82
2022/06/02 03:08:42;;;;;;;3.17;1.05;;;14.00;93.30;;;;;;5040898;28;20532;-83
2022/06/02 03:11:55;;;;;;;3.53;1.40;;;14.00;93.30;;;;;;5047930;28;20052;-83
2022/06/02 03:15:10;;;;;;;1.35;0.93;;;13.90;93.40;;;;;;5021093;28;20057;-83
2022/06/02 03:18:37;;;;;;;;;;;;;;;;;;;;;
2022/06/02 03:21:47;;;;;;;2.00;1.38;;;13.80;93.50;;;;;;5019539;28;44459;-82
2022/06/02 03:25:11;;;;;;;1.23;1.00;;;13.80;93.50;;;;;;5020470;28;20152;-83
2022/06/02 03:31:27;;;;;;;1.90;1.20;;;13.70;93.60;;;;;;5021845;28;20098;-82
2022/06/02 03:34:36;;;;;;;3.42;1.40;;;13.70;93.60;;;;;;4999970;28;20129;-83
2022/06/02 03:45:18;;;;;;;3.83;1.65;;;13.80;93.80;;;;;;4995356;28;20177;-83
2022/06/02 03:48:17;;;;;;;1.17;0.80;;;13.60;93.70;;;;;;5025941;28;20050;-83
2022/06/02 03:51:37;;;;;;;;;;;;;;;;;;;;;
2022/06/02 03:54:50;;;;;;;2.13;1.42;;;13.40;93.80;;;;;;5000260;28;39284;-82
2022/06/02 03:58:01;;;;;;;1.58;1.00;;;13.30;93.80;;;;;;4968806;28;20066;-84
2022/06/02 04:01:35;;;;;;;4.57;1.35;;;13.60;93.90;;;;;;5041721;28;20053;-83
2022/06/02 04:04:32;;;;;;;;;;;;;;;;;;;;;
2022/06/02 04:07:31;;;;;;;3.53;1.88;;;13.40;93.90;;;;;;5043483;28;39872;-82
2022/06/02 04:10:56;;;;;;;1.92;1.40;;;13.30;93.90;;;;;;5042368;28;20529;-84
2022/06/02 04:14:29;;;;;;;;;;;;;;;;;;;;;
2022/06/02 04:17:27;;;;;;;3.45;1.40;;;13.40;94.00;;;;;;5039022;28;42717;-83
2022/06/02 04:27:27;;;;;;;3.40;1.58;;;13.70;94.10;;;;;;5053991;28;20557;-85
2022/06/02 04:30:35;;;;;;;4.03;2.00;;;13.40;94.10;;;;;;5058897;28;20109;-83
2022/06/02 04:33:56;;;;;;;1.85;1.08;;;13.80;94.20;;;;;;5063145;28;20072;-82
2022/06/02 04:36:52;;;;;;;1.52;1.20;;;13.80;94.20;;;;;;5041811;28;20045;-83
2022/06/02 04:40:06;;;;;;;1.38;1.02;;;13.60;94.20;;;;;;5041853;28;20108;-82
2022/06/02 04:43:21;;;;;;;2.38;1.35;;;13.70;94.20;;;;;;5028189;28;20048;-83
2022/06/02 04:46:55;;;;;;;3.22;1.75;;;13.70;94.30;;;;;;5029617;28;20049;-84
2022/06/02 04:53:13;;;;;;;4.45;1.60;;;13.90;94.40;;;;;;5047890;28;20044;-83
2022/06/02 04:56:25;;;;;;;5.05;1.50;;;13.90;94.40;;;;;;5013731;28;20050;-83
2022/06/02 04:59:34;;;;;;;4.32;1.48;;;13.90;94.30;;;;;;5042993;28;20054;-83
2022/06/02 05:02:56;;;;;;;2.92;1.45;;;13.90;94.40;;;;;;5036949;28;20629;-88
2022/06/02 05:06:00;;;;;;;2.15;1.45;;;13.90;94.40;;;;;;5027709;28;20105;-83
2022/06/02 05:09:29;;;;;;;;;;;;;;;;;;;;;
2022/06/02 05:12:19;;;;;;;3.08;1.50;;;13.90;94.50;;;;;;5045224;28;41555;-82
2022/06/02 05:15:39;;;;;;;2.58;1.50;;;14.10;94.60;;;;;;5043934;28;20049;-81
2022/06/02 05:18:49;;;;;;;2.83;1.50;;;13.90;94.50;;;;;;5051266;28;20051;-83
2022/06/02 05:21:34;;;;;;;3.55;1.55;;;14.00;94.50;;;;;;5058946;28;20045;-81
2022/06/02 05:24:25;;;;;;;3.42;1.58;;;14.20;94.60;;;;;;5051201;28;20080;-84
2022/06/02 05:27:48;;;;;;;3.15;1.73;;;14.10;94.60;;;;;;5046915;28;20114;-82
2022/06/02 05:30:57;;;;;;;3.65;1.67;;;14.10;94.50;;;;;;5044246;28;20071;-81
2022/06/02 05:34:05;;;;;;;2.25;1.55;;;14.80;94.80;;;;;;4972650;28;20078;-81
2022/06/02 05:37:14;;;;;;;4.60;1.80;;;14.10;94.60;;;;;;5051310;28;20069;-81
2022/06/02 05:40:21;;;;;;;2.60;1.48;;;13.80;94.60;;;;;;5014715;28;20107;-84
2022/06/02 05:43:02;;;;;;;5.95;1.88;;;14.00;94.80;;;;;;5059433;28;20052;-82
2022/06/02 05:45:46;;;;;;;4.17;1.93;;;14.00;94.60;;;;;;5044160;28;20045;-82
2022/06/02 05:48:54;;;;;;;5.00;1.50;;;14.00;94.70;;;;;;5046122;28;20057;-79
2022/06/02 05:51:53;;;;;;;5.82;1.85;;;14.00;94.70;;;;;;5031599;28;20126;-79
2022/06/02 05:54:49;;;;;;;3.40;1.88;;;14.10;94.80;;;;;;5042988;28;20049;-80
2022/06/02 05:57:47;;;;;;;3.67;1.65;;;13.90;94.80;;;;;;5049415;28;20048;-80
2022/06/02 06:00:45;;;;;;;2.83;1.83;;;13.50;94.70;;;;;;5043860;28;20034;-79
2022/06/02 06:03:39;;;;;;;3.55;2.10;;;14.50;95.00;;;;;;5044615;28;20045;-79
2022/06/02 06:06:42;;;;;;;6.03;1.75;;;13.90;95.00;;;;;;5050711;28;20183;-80
2022/06/02 06:09:20;;;;;;;2.53;1.75;;;14.00;95.10;;;;;;5051628;28;20045;-79
2022/06/02 06:12:21;;;;;;;;;;;;;;;;;;;;;
2022/06/02 06:15:02;;;;;;;4.68;1.90;;;14.40;95.20;;;;;;5045220;28;38096;-81
2022/06/02 06:17:54;;;;;;;3.38;1.70;;;14.00;95.20;;;;;;5049625;28;20056;-81
2022/06/02 06:21:03;;;;;;;2.97;1.63;;;14.10;95.30;;;;;;5050395;28;20049;-82
2022/06/02 06:23:35;;;;;;;2.83;2.05;;;14.50;95.50;;;;;;5043832;28;20036;-83
2022/06/02 06:26:17;;;;;;;;;;;13.80;95.30;;;;;;5042981;28;20048;-80
2022/06/02 06:29:20;;;;;;;3.75;2.15;;;14.20;95.40;;;;;;5042375;28;19925;-79
2022/06/02 06:32:25;;;;;;;3.72;2.05;;;14.20;95.50;;;;;;5015523;28;20056;-81
2022/06/02 06:35:15;;;;;;;2.88;2.03;;;14.30;95.50;;;;;;5021477;28;20057;-81
2022/06/02 06:38:03;;;;;;;5.28;2.00;;;14.30;95.50;;;;;;5060633;28;20171;-80
2022/06/02 06:41:10;;;;;;;2.50;1.70;;;14.00;95.50;;;;;;5045236;28;20146;-80
2022/06/02 06:44:01;;;;;;;5.35;2.03;;;13.90;95.50;;;;;;5045104;28;20050;-80
2022/06/02 06:46:46;;;;;;;4.40;1.95;;;14.50;95.60;;;;;;5046001;28;20053;-80
2022/06/02 06:49:33;;;;;;;3.22;1.92;;;14.50;96.00;;;;;;5051637;28;20064;-81
2022/06/02 06:52:31;;;;;;;4.40;1.75;;;14.80;95.80;;;;;;5044740;28;20064;-80
2022/06/02 06:55:42;;;;;;;5.53;1.90;;;14.60;95.80;;;;;;5044698;28;20045;-80
2022/06/02 06:58:32;;;;;;;2.60;2.33;;;14.80;95.90;;;;;;5044308;28;20049;-80
2022/06/02 07:01:43;;;;;;;2.58;1.85;;;14.90;95.90;;;;;;5046092;28;20531;-79
2022/06/02 07:04:36;;;;;;;7.30;1.77;;;15.20;96.00;;;;;;5043580;28;20054;-80
2022/06/02 07:07:22;;;;;;;4.00;1.80;;;15.40;95.90;;;;;;5052139;28;20049;-80
2022/06/02 07:10:22;;;;;;;3.25;1.30;;;15.40;95.80;;;;;;5051136;28;20049;-80
2022/06/02 07:13:06;;;;;;;3.95;1.95;;;15.40;95.70;;;;;;5050418;28;20053;-80
2022/06/02 07:16:15;;;;;;;4.47;1.80;;;15.40;95.60;;;;;;5042962;28;20556;-80
2022/06/02 07:19:10;;;;;;;10.15;2.22;;;15.30;95.50;;;;;;4985311;28;20044;-79
2022/06/02 07:22:16;;;;;;;3.75;1.35;;;15.00;95.50;;;;;;5046637;28;20049;-80
2022/06/02 07:25:21;;;;;;;4.55;2.05;;;15.30;95.60;;;;;;5045111;28;20049;-79
2022/06/02 07:28:05;;;;;;;4.55;1.50;;;15.50;95.70;;;;;;5046332;28;20132;-80
2022/06/02 07:31:02;;;;;;;3.97;1.40;;;15.70;95.70;;;;;;5051848;28;20044;-80
2022/06/02 07:37:29;;;;;;;2.70;1.75;;;16.30;95.50;;;;;;5046236;28;20065;-80
2022/06/02 07:40:51;;;;;;;3.08;1.10;;;16.40;95.30;;;;;;5043314;28;20052;-79
2022/06/02 07:43:40;;;;;;;2.88;1.38;;;16.30;95.00;;;;;;5042550;28;20115;-80
2022/06/02 07:46:36;;;;;;;3.00;1.98;;;16.80;95.00;;;;;;5045371;28;20136;-80
2022/06/02 07:49:38;;;;;;;2.13;1.75;;;17.00;94.90;;;;;;5049280;28;20891;-79
2022/06/02 07:52:09;;;;;;;5.97;2.00;;;16.90;95.00;;;;;;5048346;28;20053;-80
2022/06/02 07:54:46;;;;;;;2.33;1.15;;;17.20;94.60;;;;;;5053196;28;20149;-80
2022/06/02 07:57:51;;;;;;;2.70;1.52;;;17.30;94.50;;;;;;5061868;28;20077;-80
2022/06/02 08:00:37;;;;;;;3.13;1.27;;;17.40;94.20;;;;;;5045449;28;20077;-80
2022/06/02 08:03:30;;;;;;;4.82;1.58;;;17.50;94.20;;;;;;5052656;28;20049;-80
2022/06/02 08:06:16;;;;;;;1.75;1.38;;;17.70;94.10;;;;;;5054381;28;20139;-80
2022/06/02 08:09:01;;;;;;;2.45;1.20;;;17.50;93.80;;;;;;5045664;28;20085;-79
2022/06/02 08:12:00;;;;;;;4.57;1.33;;;17.50;93.70;;;;;;5045507;28;20041;-80
2022/06/02 08:14:57;;;;;;;3.47;1.75;;;17.80;93.60;;;;;;5044967;28;20043;-80
2022/06/02 08:18:01;;;;;;;4.70;1.90;;;17.30;93.30;;;;;;5045416;28;20042;-80
2022/06/02 08:21:29;;;;;;;2.75;1.30;;;17.20;93.30;;;;;;5044545;28;20048;-80
2022/06/02 08:24:10;;;;;;;3.78;1.23;;;17.00;93.30;;;;;;5029264;28;20061;-79
2022/06/02 08:27:16;;;;;;;2.55;1.20;;;17.00;93.20;;;;;;5055362;28;20048;-81
2022/06/02 08:30:15;;;;;;;3.00;1.52;;;16.90;93.30;;;;;;5048619;28;20521;-80
2022/06/02 08:33:18;;;;;;;4.95;1.73;;;16.90;93.30;;;;;;5046039;28;20046;-80
2022/06/02 08:35:56;;;;;;;;;;;16.90;93.30;;;;;;5047993;28;20513;-80
2022/06/02 08:39:09;;;;;;;2.33;1.30;;;16.90;93.30;;;;;;5063274;28;20023;-80
2022/06/02 08:42:14;;;;;;;4.70;1.55;;;17.10;93.30;;;;;;5017591;28;20554;-80
2022/06/02 08:44:52;;;;;;;2.90;1.38;;;17.10;93.20;;;;;;5046434;28;20048;-80
2022/06/02 08:47:51;;;;;;;3.33;1.40;;;17.30;93.20;;;;;;5047286;28;20552;-80
2022/06/02 08:50:54;;;;;;;1.77;1.33;;;17.50;93.20;;;;;;5053106;28;20057;-80
2022/06/02 08:53:54;;;;;;;3.25;1.50;;;17.70;93.10;;;;;;5045299;28;20063;-80
2022/06/02 08:56:53;;;;;;;5.28;1.65;;;18.00;93.20;;;;;;5046379;28;20512;-80
2022/06/02 08:59:59;;;;;;;6.00;1.52;;;18.20;92.90;;;;;;5047969;28;20575;-81
2022/06/02 09:03:20;;;;;;;2.92;1.20;;;18.50;92.60;;;;;;5046693;28;20680;-80
2022/06/02 09:09:24;;;;;;;2.67;1.38;;;18.80;92.40;;;;;;5047304;28;21581;-81
2022/06/02 09:12:12;;;;;;;3.47;1.38;;;18.80;92.20;;;;;;5047526;28;20048;-80
2022/06/02 09:14:50;;;;;;;1.92;1.10;;;18.90;92.10;;;;;;5046316;28;20608;-81
2022/06/02 09:17:57;;;;;;;3.83;1.20;;;19.00;91.90;;;;;;5045623;28;20079;-80
2022/06/02 09:20:58;;;;;;;3.10;1.40;;;19.00;91.70;;;;;;5037133;28;20060;-80
2022/06/02 09:24:06;;;;;;;1.58;1.20;;;18.90;91.70;;;;;;5047214;28;20125;-79
2022/06/02 09:27:05;;;;;;;2.78;2.00;;;18.90;91.60;;;;;;5047211;28;20053;-80
2022/06/02 09:30:18;;;;;;;3.90;1.40;;;18.90;91.60;;;;;;5046505;28;20045;-80
2022/06/02 09:32:55;;;;;;;;;;;18.70;91.40;;;;;;5046774;28;20119;-80
2022/06/02 09:35:55;;;;;;;2.25;1.25;;;19.00;91.50;;;;;;5046501;28;19963;-80
2022/06/02 09:38:40;;;;;;;4.45;1.02;;;19.20;91.40;;;;;;5023531;28;20112;-80
2022/06/02 09:41:37;;;;;;;2.85;1.20;;;19.40;91.30;;;;;;5047191;28;20817;-79
2022/06/02 09:44:24;;;;;;;3.95;1.38;;;19.60;91.20;;;;;;5048861;28;20044;-80
2022/06/02 09:47:50;;;;;;;3.42;1.42;;;19.60;91.10;;;;;;5046585;28;20072;-80
2022/06/02 09:50:37;;;;;;;3.80;1.45;;;19.70;90.70;;;;;;4992984;28;20080;-80
2022/06/02 09:53:18;;;;;;;3.38;1.25;;;19.90;90.70;;;;;;5001344;28;20657;-80
2022/06/02 09:55:49;;;;;;;5.90;1.35;;;20.10;90.60;;;;;;5036511;28;20056;-80
2022/06/02 09:58:37;;;;;;;1.48;1.13;;;20.20;90.40;;;;;;5044879;28;20173;-80
2022/06/02 10:01:17;;;;;;;7.03;1.77;;;20.30;90.20;;;;;;5059930;28;20053;-84
2022/06/02 10:04:13;;;;;;;3.58;1.23;;;20.30;90.20;;;;;;5048481;28;20033;-80
2022/06/02 10:07:25;;;;;;;3.10;1.50;;;20.40;90.10;;;;;;5064514;28;20045;-80
2022/06/02 10:10:28;;;;;;;1.48;1.08;;;20.50;89.60;;;;;;5055523;28;20049;-81
2022/06/02 10:13:15;;;;;;;1.63;1.08;;;20.60;89.30;;;;;;5046069;28;20046;-79
2022/06/02 10:15:40;;;;;;;3.45;1.25;;;20.80;89.20;;;;;;5045265;28;21115;-79
2022/06/02 10:18:25;;;;;;;3.33;1.25;;;20.90;89.00;;;;;;5046458;28;20042;-79
2022/06/02 10:21:00;;;;;;;1.60;1.20;;;20.90;88.20;;;;;;5046782;28;20115;-77
2022/06/02 10:24:02;;;;;;;2.90;1.17;;;20.90;88.20;;;;;;5044324;28;20211;-80
2022/06/02 10:26:51;;;;;;;3.28;1.20;;;20.90;88.00;;;;;;5045701;28;20045;-80
2022/06/02 10:29:43;;;;;;;2.70;1.50;;;20.80;87.50;;;;;;5044801;28;20033;-79
2022/06/02 10:32:30;;;;;;;2.95;1.70;;;20.60;87.20;;;;;;5044972;28;20103;-79
2022/06/02 10:35:26;;;;;;;1.98;1.30;;;20.50;87.30;;;;;;5048032;28;20080;-78
2022/06/02 10:38:08;;;;;;;4.07;1.38;;;20.50;87.00;;;;;;5051688;28;20545;-79
2022/06/02 10:40:53;;;;;;;2.60;1.48;;;20.60;86.50;;;;;;5043382;28;20081;-79
2022/06/02 10:43:32;;;;;;;4.43;1.50;;;20.60;86.50;;;;;;5050069;28;20783;-79
2022/06/02 10:46:10;;;;;;;3.00;1.40;;;20.70;86.50;;;;;;5047343;28;20049;-79
2022/06/02 10:49:04;;;;;;;2.22;1.33;;;20.80;85.90;;;;;;5052688;28;20104;-79
2022/06/02 10:52:14;;;;;;;2.55;1.40;;;20.70;85.40;;;;;;5047645;28;20524;-79
2022/06/02 10:54:46;;;;;;;2.30;1.95;;;20.90;85.20;;;;;;4992578;28;20062;-79
2022/06/02 10:57:33;;;;;;;2.85;1.38;;;20.90;84.90;;;;;;5051386;28;20060;-79
2022/06/02 11:00:18;;;;;;;2.20;1.08;;;21.00;84.60;;;;;;5044528;28;20085;-79
2022/06/02 11:03:12;;;;;;;2.17;1.33;;;21.00;84.20;;;;;;5052699;28;20038;-79
2022/06/02 11:06:03;;;;;;;1.63;1.15;;;21.10;84.10;;;;;;5051356;28;20112;-78
2022/06/02 11:09:06;;;;;;;1.88;1.13;;;21.40;83.80;;;;;;5058991;28;20042;-78
2022/06/02 11:11:55;;;;;;;2.72;1.00;;;21.60;83.60;;;;;;5045424;28;20044;-78
2022/06/02 11:14:45;;;;;;;3.70;1.13;;;21.60;83.30;;;;;;5045182;28;20520;-78
2022/06/02 11:17:28;;;;;;;1.85;1.20;;;21.60;83.10;;;;;;5043428;28;20045;-79
2022/06/02 11:20:05;;;;;;;2.03;1.15;;;21.50;83.00;;;;;;5043898;28;20576;-79
2022/06/02 11:23:09;;;;;;;2.97;1.70;;;21.30;83.00;;;;;;5043717;28;20048;-78
2022/06/02 11:25:56;;;;;;;4.00;1.20;;;21.20;82.80;;;;;;5026172;28;20069;-76
2022/06/02 11:28:55;;;;;;;1.95;1.00;;;21.10;82.70;;;;;;5046824;28;20529;-77
2022/06/02 11:32:05;;;;;;;1.45;0.90;;;21.20;82.70;;;;;;5042834;28;20037;-80
2022/06/02 11:34:43;;;;;;;1.88;1.10;;;21.30;82.60;;;;;;5060559;28;20045;-79
2022/06/02 11:37:27;;;;;;;3.10;1.38;;;21.50;82.60;;;;;;5045383;28;20040;-78
2022/06/02 11:40:06;;;;;;;3.70;1.30;;;21.70;82.40;;;;;;5043698;28;20045;-77
2022/06/02 11:42:48;;;;;;;3.45;1.10;;;21.80;82.20;;;;;;5046084;28;20075;-78
2022/06/02 11:45:51;;;;;;;2.45;1.20;;;22.00;81.80;;;;;;5044775;28;20103;-79
2022/06/02 11:48:55;;;;;;;3.45;1.30;;;22.10;81.40;;;;;;5045484;28;20045;-79
2022/06/02 11:51:24;;;;;;;2.58;1.20;;;22.30;81.20;;;;;;5015660;28;20049;-79
2022/06/02 11:54:20;;;;;;;2.20;1.05;;;22.50;81.30;;;;;;5044568;28;20596;-78
2022/06/02 11:56:55;;;;;;;7.65;1.40;;;22.60;80.90;;;;;;5050602;28;20048;-78
2022/06/02 11:59:45;;;;;;;1.58;1.23;;;22.50;80.40;;;;;;5046049;28;20557;-78
2022/06/02 12:02:14;;;;;;;3.10;1.38;;;22.60;80.50;;;;;;5044709;28;20049;-78
2022/06/02 12:04:57;;;;;;;1.55;1.15;;;22.50;80.50;;;;;;5044142;28;21481;-78
2022/06/02 12:07:54;;;;;;;2.63;1.33;;;22.40;80.50;;;;;;5045198;28;20415;-78
2022/06/02 12:10:54;;;;;;;1.88;1.52;;;22.20;80.50;;;;;;5050907;28;20032;-78
2022/06/02 12:13:44;;;;;;;4.10;1.30;;;22.00;80.30;;;;;;5037442;28;20579;-78
2022/06/02 12:16:55;;;;;;;1.17;1.05;;;21.70;80.30;;;;;;5049184;28;20051;-78
2022/06/02 12:19:39;;;;;;;3.25;1.40;;;21.50;80.40;;;;;;5041240;28;20667;-78
2022/06/02 12:22:33;;;;;;;3.95;1.30;;;21.30;80.80;;;;;;5045477;28;20454;-78
2022/06/02 12:25:27;;;;;;;2.95;1.20;;;21.20;80.80;;;;;;5046413;28;20045;-78
2022/06/02 12:28:27;;;;;;;1.98;1.20;;;21.10;80.60;;;;;;5041216;28;20102;-78
2022/06/02 12:31:17;;;;;;;2.75;1.40;;;21.10;80.70;;;;;;5044935;28;20481;-78
2022/06/02 12:34:10;;;;;;;2.70;1.67;;;21.10;80.60;;;;;;5052308;28;20042;-78
2022/06/02 12:37:24;;;;;;;2.20;1.10;;;21.00;80.60;;;;;;5046061;28;20556;-78
2022/06/02 12:40:18;;;;;;;6.82;1.48;;;21.00;80.70;;;;;;5036129;28;20363;-77
2022/06/02 12:42:56;;;;;;;2.70;1.60;;;21.10;80.40;;;;;;5044600;28;20048;-77
2022/06/02 12:45:43;;;;;;;6.32;1.77;;;21.00;79.90;;;;;;5046147;28;20041;-77
2022/06/02 12:48:28;;;;;;;0.90;0.90;;;21.00;79.70;;;;;;5045400;28;20167;-78
2022/06/02 12:51:26;;;;;;;2.53;0.95;;;21.00;79.60;;;;;;5046370;28;20103;-78
2022/06/02 12:54:22;;;;;;;1.95;0.98;;;21.00;79.50;;;;;;5045138;28;20058;-78
2022/06/02 12:56:51;;;;;;;3.65;1.50;;;21.00;79.10;;;;;;5048105;28;20357;-78
2022/06/02 12:59:36;;;;;;;3.60;1.38;;;21.00;79.00;;;;;;5045098;28;20045;-78
2022/06/02 13:02:11;;;;;;;3.60;1.08;;;21.10;79.10;;;;;;5043063;28;20131;-78
2022/06/02 13:05:14;;;;;;;4.47;1.52;;;21.10;79.20;;;;;;5043797;28;20583;-78
2022/06/02 13:08:28;;;;;;;1.73;1.33;;;21.20;79.40;;;;;;5045057;28;20037;-77
2022/06/02 13:11:21;;;;;;;2.38;1.35;;;21.30;79.20;;;;;;5062154;28;20509;-78
2022/06/02 13:14:08;;;;;;;1.33;0.80;;;21.30;79.10;;;;;;5047486;28;20048;-79
2022/06/02 13:16:37;;;;;;;3.45;1.20;;;21.30;79.00;;;;;;5047875;28;20572;-78
2022/06/02 13:19:30;;;;;;;3.72;1.10;;;21.30;79.10;;;;;;5048125;28;20052;-78
2022/06/02 13:22:11;;;;;;;2.35;1.00;;;21.30;79.20;;;;;;5048497;28;20041;-78
2022/06/02 13:25:16;;;;;;;2.15;1.30;;;21.30;79.20;;;;;;5046906;28;20049;-78
2022/06/02 13:28:05;;;;;;;2.25;1.35;;;21.30;79.10;;;;;;4982234;28;20047;-84
2022/06/02 13:30:46;;;;;;;4.22;1.55;;;21.30;79.20;;;;;;5047477;28;20045;-79
2022/06/02 13:33:48;;;;;;;4.65;1.30;;;21.40;79.20;;;;;;5047569;28;20042;-78
2022/06/02 13:36:42;;;;;;;3.35;1.30;;;21.40;79.10;;;;;;5046865;28;20132;-81
2022/06/02 13:39:50;;;;;;;2.72;1.02;;;21.40;79.20;;;;;;5016944;28;20075;-83
2022/06/02 13:42:49;;;;;;;1.35;1.00;;;21.50;79.20;;;;;;5048046;28;20037;-83
2022/06/02 13:45:46;;;;;;;1.85;1.33;;;21.50;79.40;;;;;;5015472;28;20072;-83
2022/06/02 13:48:52;;;;;;;2.60;1.73;;;21.50;79.30;;;;;;5046596;28;20041;-86
2022/06/02 13:51:41;;;;;;;1.45;1.10;;;21.60;79.40;;;;;;5045818;28;20047;-83
2022/06/02 13:58:16;;;;;;;3.42;1.35;;;21.60;79.50;;;;;;5048187;28;20045;-82
2022/06/02 14:01:05;;;;;;;1.38;0.90;;;21.70;79.60;;;;;;5014504;28;20118;-80
2022/06/02 14:03:56;;;;;;;1.50;1.10;;;21.80;79.70;;;;;;5013106;28;20042;-79
2022/06/02 14:06:30;;;;;;;2.13;1.30;;;21.80;79.80;;;;;;5043057;28;20057;-80
2022/06/02 14:09:26;;;;;;;2.88;1.08;;;21.90;79.90;;;;;;5062267;28;20183;-79
2022/06/02 14:12:16;;;;;;;2.72;1.23;;;22.10;80.00;;;;;;5053233;28;20045;-80
2022/06/02 14:15:00;;;;;;;2.22;1.25;;;22.20;79.70;;;;;;5046658;28;20046;-80
2022/06/02 14:18:13;;;;;;;3.33;1.80;;;22.30;79.50;;;;;;5044480;28;20121;-82
2022/06/02 14:21:14;;;;;;;3.40;1.30;;;22.40;78.90;;;;;;4976384;28;20042;-80
2022/06/02 14:23:48;;;;;;;3.92;1.40;;;22.60;78.70;;;;;;5018907;28;20104;-80
2022/06/02 14:26:31;;;;;;;1.67;0.93;;;22.70;78.80;;;;;;5047701;28;20041;-78
2022/06/02 14:29:18;;;;;;;3.22;1.40;;;23.10;78.70;;;;;;5046760;28;20037;-81
2022/06/02 14:31:50;;;;;;;3.97;1.60;;;23.40;78.20;;;;;;5045675;28;20041;-80
2022/06/02 14:34:29;;;;;;;4.00;1.48;;;23.70;78.20;;;;;;5046968;28;20056;-81
2022/06/02 14:37:19;;;;;;;7.25;2.15;;;24.00;77.90;;;;;;5060442;28;20049;-81
2022/06/02 14:39:49;;;;;;;3.00;1.30;;;24.20;77.70;;;;;;5046096;28;20056;-80
2022/06/02 14:45:21;;;;;;;1.92;1.25;;;24.30;77.40;;;;;;5043828;28;21007;-81
2022/06/02 14:48:22;;;;;;;4.20;2.03;;;24.30;77.10;;;;;;5046726;28;20099;-80
2022/06/02 14:51:13;;;;;;;3.22;1.08;;;24.40;76.60;;;;;;5048048;28;20096;-80
2022/06/02 14:53:48;;;;;;;1.57;1.00;;;24.40;76.50;;;;;;5045358;28;20123;-81
2022/06/02 14:56:29;;;;;;;1.50;0.95;;;24.50;76.30;;;;;;5045831;28;20049;-81
2022/06/02 14:58:55;;;;;;;2.05;1.10;;;24.60;75.60;;;;;;5047062;28;20037;-80
2022/06/02 15:01:33;;;;;;;1.20;1.02;;;24.60;75.60;;;;;;5047771;28;20501;-81
2022/06/02 15:04:21;;;;;;;2.20;1.10;;;24.70;75.40;;;;;;5048076;28;20037;-81
2022/06/02 15:07:24;;;;;;;1.27;1.13;;;24.70;75.30;;;;;;5048348;28;20141;-80
2022/06/02 15:10:09;;;;;;;4.03;1.20;;;24.70;75.30;;;;;;5053444;28;20041;-80
2022/06/02 15:12:51;;;;;;;1.15;1.05;;;24.70;75.20;;;;;;5045289;28;20048;-80
2022/06/02 15:15:49;;;;;;;3.67;1.17;;;24.70;75.20;;;;;;5047002;28;20107;-80
2022/06/02 15:19:01;;;;;;;0.90;0.70;;;24.90;74.80;;;;;;5042290;28;20045;-81
2022/06/02 15:21:45;;;;;;;1.50;1.25;;;25.00;74.50;;;;;;5023670;28;20049;-80
2022/06/02 15:24:58;;;;;;;3.47;1.10;;;25.00;74.30;;;;;;5045350;28;20048;-81
2022/06/02 15:28:05;;;;;;;2.35;1.30;;;25.10;74.00;;;;;;5005162;28;20557;-81
2022/06/02 15:31:00;;;;;;;1.77;1.08;;;25.00;74.10;;;;;;5045297;28;20049;-81
2022/06/02 15:33:41;;;;;;;3.08;1.60;;;25.10;73.70;;;;;;5045210;28;20040;-80
2022/06/02 15:36:38;;;;;;;2.45;1.17;;;25.20;73.70;;;;;;5045828;28;20038;-81
2022/06/02 15:39:32;;;;;;;1.80;1.00;;;25.30;73.40;;;;;;5045229;28;20680;-80
2022/06/02 15:42:22;;;;;;;6.95;1.38;;;25.40;73.20;;;;;;5044694;28;20055;-81
2022/06/02 15:45:26;;;;;;;2.47;1.23;;;25.50;73.00;;;;;;5043151;28;20045;-81
2022/06/02 15:48:10;;;;;;;1.88;1.13;;;25.70;72.80;;;;;;5045003;28;20131;-81